Weather at Nielsen Airport

Public forecast

Using degrees Fahrenheit for public forecast. Weather courtesy of forecast.io.

Closest aviation weather report (METAR) to Nielsen Airport

Closest report is Aurora State Airport, 12.0 nm (22.3 km) WSW. Retrieved 2021/06/19 20:53 UTC (28 minutes ago):

KUAO 192053Z 05006KT 10SM CLR 24/10 A3006 RMK AO2 SLP179 T02390100 58015

Closest aviation forecast (TAF) to Nielsen Airport

Closest forecast is Aurora State Airport, 12.0 nm (22.3 km) WSW. Retrieved 2021/06/19 18:38 UTC (3 hours ago):

TAF KUAO 191738Z 1918/2018 VRB04KT P6SM FEW250 FM192100 35007KT P6SM SKC FM200900 VRB04KT P6SM SKC